Rodney, Iowa
Current Conditions -  °F | °C
As of 2:52 AM on Saturday 20 Dec 2014 (Local Time) from KSUX Reporting Station
Haze Haze  
Wind Chill: 24°   Ceiling: 500
Heat Index: 32°   Visibility: 4mi
Dew Point: 30°   Wind: 9mph
Humidity: 92%   Direction: 160°SSE
Pressure: 30.1"   Gusts: NA
Location:  42.21°N, 95.95°W
Report Text: KSUX 200852Z 16008KT 4SM BR OVC005 00/M01 A3010 RMK AO2 CIG 004V009 SLP206 T00001011 55002
Loading
Personal Weather Stations






























Interactive Weather Map New forecast layout! Learn more

10-Day Weather Forecast

Advertisements
Track Severe Weather on mobile